logo
Rechercher aéroport 
image banner adimage banner adimage banner ad
image banner ad

MDMA - Magdalena Cuya

Situé à La Romana, Dominican Republic

ICAO - , IATA -

Données fournies par Airmate  

Information générale

Coordonnées: N18°30'7" W68°47'57"
Élévation : 325 feet MSL.
 
Voir autres Aéroports à La Romana Province

Données opérationnelles

Special qualification required
Heure actuelle UTC:
Heure actuelle locale:
METAR: MDLR 122200Z 09008KT 9999 FEW018CB BKN020 28/26 Q1017 RERA CB/NE/W/NW
TAF: TAF MDLR 122200Z 1300/1400 09010KT 9999 SCT020 SCT070 PROB30 1300/1306 7000 -TSRA FEW016CB BKN018 SCT070 BECMG 1301/1303 00000KT
Voir NOTAMs / SUP AIP / TFR affectant cet aéroport [VIEW]
Fréquences de communication: [VIEW]

Pistes:

Identifiant RWYQFULongueur (ft)Largeur (ft)SurfaceLDA (ft)
09295359UNK
27295359UNK

Coordonnées de l'aéroport

Adresse: La Romana Dominican Republic

Vue satellite de MDMA